Ever Delight — 3FCB8 — position and weather

sailwx.info

Track history (hours):
 
Tides and Currents Weather Stations Pressure Air Temp Water Temp Dewpoint Dewpoint Depression Visibility Wind Speed Wind Dir Waves Ship Positions

Ever Delight

Last reported at 2016-Jul-30 00:31 UTC. Time now 2016-Jul-30 03:35 UTC.
Position N 02°03' E 102°08'.

Type: Ship (hazmat cat D). MMSI: 351936000.

Date/timePositionNaut miles runAvg speedWind from/ knotsBaromVisibWave heightAir tempDewpointWater temp
2016-Jul-30 00:31N 02°03' E 102°08'1514.9
2016-Jul-29 23:31N 01°54' E 102°20'1414.6
2016-Jul-29 22:33N 01°48' E 102°33'1514.4
2016-Jul-29 21:33N 01°43' E 102°46'61 2.0
2016-Jul-28 14:33N 01°12' E 103°40'8 7.7
2016-Jul-28 13:33N 01°17' E 103°46'0 0.1
2016-Jul-28 12:17N 01°17' E 103°46'0 0.0
2016-Jul-28 11:33N 01°17' E 103°46'0 0.0
2016-Jul-28 10:32N 01°17' E 103°46'0 0.0
2016-Jul-28 09:26N 01°17' E 103°46'0 0.0
2016-Jul-28 08:33N 01°17' E 103°46'0 0.3
2016-Jul-28 07:34N 01°17' E 103°46'2 2.1
2016-Jul-28 06:34N 01°15' E 103°47'1 0.9
2016-Jul-28 05:21N 01°14' E 103°47'0 0.1
2016-Jul-28 04:31N 01°14' E 103°47'0 0.0
2016-Jul-28 03:28N 01°14' E 103°47'2 2.0
2016-Jul-28 02:33N 01°13' E 103°49'8 7.7
2016-Jul-28 01:33N 01°14' E 103°56'8 8.1
2016-Jul-28 00:33N 01°16' E 104°04'6 5.5
2016-Jul-27 23:32N 01°16' E 104°10'  
2016-Jul-22 19:15N 22°34' E 114°16'0 0.2
2016-Jul-22 18:30N 22°34' E 114°16'0 0.0
2016-Jul-22 13:30N 22°34' E 114°16'17 2.5
2016-Jul-22 06:33N 22°19' E 114°06'2 0.2
2016-Jul-22 00:07N 22°20' E 114°08'1 2.6
2016-Jul-21 23:33N 22°19' E 114°06'31414.7
2016-Jul-21 02:13N 22°30' E 119°45'1015.8
2016-Jul-21 01:33N 22°31' E 119°57'1413.7
2016-Jul-21 00:34N 22°32' E 120°11'7 5.0
2016-Jul-20 23:08N 22°34' E 120°19'0 0.0
2016-Jul-20 21:32N 22°34' E 120°19'0 0.0
2016-Jul-20 20:32N 22°34' E 120°19'0 0.0
2016-Jul-20 19:32N 22°34' E 120°19'0 0.1
2016-Jul-20 18:32N 22°34' E 120°19'0 0.1
2016-Jul-20 17:26N 22°34' E 120°19'0 0.0
2016-Jul-20 16:26N 22°34' E 120°19'0 0.0
2016-Jul-20 15:26N 22°34' E 120°19'0 0.0
2016-Jul-20 14:26N 22°34' E 120°19'0 0.0
2016-Jul-20 13:26N 22°34' E 120°19'0 0.0
2016-Jul-20 11:32N 22°34' E 120°19'0 0.0
2016-Jul-20 10:32N 22°34' E 120°19'0 0.0
2016-Jul-20 09:26N 22°34' E 120°19'0 0.0
2016-Jul-20 08:32N 22°34' E 120°19'0 0.0
2016-Jul-20 07:20N 22°34' E 120°19'0 0.0
2016-Jul-20 03:20N 22°34' E 120°19'0 0.0
2016-Jul-20 02:32N 22°34' E 120°19'0 0.0
2016-Jul-20 01:32N 22°34' E 120°19'  
Track history (hours):
 
Tides and Currents Weather Stations Pressure Air Temp Water Temp Dewpoint Dewpoint Depression Visibility Wind Speed Wind Dir Waves Ship Positions

Ever Delight

Last reported at 2016-Jul-30 00:31 UTC. Time now 2016-Jul-30 03:35 UTC.
Position N 02°03' E 102°08'.

Type: Ship (hazmat cat D). MMSI: 351936000.

Date/timePositionNaut miles runAvg speedWind from/ knotsBaromVisibWave heightAir tempDewpointWater temp
2016-Jul-30 00:31N 02°03' E 102°08'1514.9
2016-Jul-29 23:31N 01°54' E 102°20'1414.6
2016-Jul-29 22:33N 01°48' E 102°33'1514.4
2016-Jul-29 21:33N 01°43' E 102°46'61 2.0
2016-Jul-28 14:33N 01°12' E 103°40'8 7.7
2016-Jul-28 13:33N 01°17' E 103°46'0 0.1
2016-Jul-28 12:17N 01°17' E 103°46'0 0.0
2016-Jul-28 11:33N 01°17' E 103°46'0 0.0
2016-Jul-28 10:32N 01°17' E 103°46'0 0.0
2016-Jul-28 09:26N 01°17' E 103°46'0 0.0
2016-Jul-28 08:33N 01°17' E 103°46'0 0.3
2016-Jul-28 07:34N 01°17' E 103°46'2 2.1
2016-Jul-28 06:34N 01°15' E 103°47'1 0.9
2016-Jul-28 05:21N 01°14' E 103°47'0 0.1
2016-Jul-28 04:31N 01°14' E 103°47'0 0.0
2016-Jul-28 03:28N 01°14' E 103°47'2 2.0
2016-Jul-28 02:33N 01°13' E 103°49'8 7.7
2016-Jul-28 01:33N 01°14' E 103°56'8 8.1
2016-Jul-28 00:33N 01°16' E 104°04'6 5.5
2016-Jul-27 23:32N 01°16' E 104°10'  
2016-Jul-22 19:15N 22°34' E 114°16'0 0.2
2016-Jul-22 18:30N 22°34' E 114°16'0 0.0
2016-Jul-22 13:30N 22°34' E 114°16'17 2.5
2016-Jul-22 06:33N 22°19' E 114°06'2 0.2
2016-Jul-22 00:07N 22°20' E 114°08'1 2.6
2016-Jul-21 23:33N 22°19' E 114°06'31414.7
2016-Jul-21 02:13N 22°30' E 119°45'1015.8
2016-Jul-21 01:33N 22°31' E 119°57'1413.7
2016-Jul-21 00:34N 22°32' E 120°11'7 5.0
2016-Jul-20 23:08N 22°34' E 120°19'0 0.0
2016-Jul-20 21:32N 22°34' E 120°19'0 0.0
2016-Jul-20 20:32N 22°34' E 120°19'0 0.0
2016-Jul-20 19:32N 22°34' E 120°19'0 0.1
2016-Jul-20 18:32N 22°34' E 120°19'0 0.1
2016-Jul-20 17:26N 22°34' E 120°19'0 0.0
2016-Jul-20 16:26N 22°34' E 120°19'0 0.0
2016-Jul-20 15:26N 22°34' E 120°19'0 0.0
2016-Jul-20 14:26N 22°34' E 120°19'0 0.0
2016-Jul-20 13:26N 22°34' E 120°19'0 0.0
2016-Jul-20 11:32N 22°34' E 120°19'0 0.0
2016-Jul-20 10:32N 22°34' E 120°19'0 0.0
2016-Jul-20 09:26N 22°34' E 120°19'0 0.0
2016-Jul-20 08:32N 22°34' E 120°19'0 0.0
2016-Jul-20 07:20N 22°34' E 120°19'0 0.0
2016-Jul-20 03:20N 22°34' E 120°19'0 0.0
2016-Jul-20 02:32N 22°34' E 120°19'0 0.0
2016-Jul-20 01:32N 22°34' E 120°19'  

Dump ship's entire track history